sensor_id;sensor_type;location;lat;lon;timestamp;pressure;altitude;pressure_sealevel;temperature;humidity
55277;BME280;41136;51.478;-2.610;2023-03-03T00:00:12;101948.20;;;6.37;70.41
55277;BME280;41136;51.478;-2.610;2023-03-03T00:02:37;101951.16;;;6.38;70.30
55277;BME280;41136;51.478;-2.610;2023-03-03T00:05:03;101955.45;;;6.69;69.60
55277;BME280;41136;51.478;-2.610;2023-03-03T00:07:28;101952.40;;;6.47;69.50
55277;BME280;41136;51.478;-2.610;2023-03-03T00:09:53;101956.59;;;6.46;69.78
55277;BME280;41136;51.478;-2.610;2023-03-03T00:12:23;101958.54;;;6.61;69.34
55277;BME280;41136;51.478;-2.610;2023-03-03T00:14:44;101958.03;;;6.39;69.66
55277;BME280;41136;51.478;-2.610;2023-03-03T00:17:16;101963.11;;;5.70;70.82
55277;BME280;41136;51.478;-2.610;2023-03-03T00:19:37;101962.21;;;6.61;69.36
55277;BME280;41136;51.478;-2.610;2023-03-03T00:22:00;101963.06;;;6.87;68.34
55277;BME280;41136;51.478;-2.610;2023-03-03T00:24:34;101964.39;;;6.36;67.83
55277;BME280;41136;51.478;-2.610;2023-03-03T00:26:53;101969.93;;;6.74;68.53
55277;BME280;41136;51.478;-2.610;2023-03-03T00:29:25;101967.70;;;6.58;68.51
55277;BME280;41136;51.478;-2.610;2023-03-03T00:31:42;101967.93;;;6.66;68.65
55277;BME280;41136;51.478;-2.610;2023-03-03T00:34:18;101968.79;;;6.56;67.81
55277;BME280;41136;51.478;-2.610;2023-03-03T00:36:36;101965.66;;;6.08;68.04
55277;BME280;41136;51.478;-2.610;2023-03-03T00:41:26;101970.42;;;6.24;69.07
55277;BME280;41136;51.478;-2.610;2023-03-03T00:43:50;101969.94;;;5.06;69.37
55277;BME280;41136;51.478;-2.610;2023-03-03T00:46:17;101972.04;;;5.33;71.39
55277;BME280;41136;51.478;-2.610;2023-03-03T00:48:42;101970.17;;;5.35;71.28
55277;BME280;41136;51.478;-2.610;2023-03-03T00:51:18;101968.79;;;5.80;70.53
55277;BME280;41136;51.478;-2.610;2023-03-03T00:53:31;101963.32;;;5.87;69.93
55277;BME280;41136;51.478;-2.610;2023-03-03T00:55:57;101959.42;;;5.78;69.82
55277;BME280;41136;51.478;-2.610;2023-03-03T00:58:23;101961.34;;;5.87;70.58
55277;BME280;41136;51.478;-2.610;2023-03-03T01:00:48;101964.99;;;6.20;69.25
55277;BME280;41136;51.478;-2.610;2023-03-03T01:03:15;101960.79;;;6.03;69.15
55277;BME280;41136;51.478;-2.610;2023-03-03T01:05:39;101968.98;;;6.10;68.38
55277;BME280;41136;51.478;-2.610;2023-03-03T01:08:04;101971.07;;;6.12;69.27
55277;BME280;41136;51.478;-2.610;2023-03-03T01:10:32;101972.83;;;6.40;68.42
55277;BME280;41136;51.478;-2.610;2023-03-03T01:12:55;101980.68;;;5.12;69.86
55277;BME280;41136;51.478;-2.610;2023-03-03T01:15:21;101978.23;;;5.97;69.63
55277;BME280;41136;51.478;-2.610;2023-03-03T01:17:46;101974.57;;;6.35;68.56
55277;BME280;41136;51.478;-2.610;2023-03-03T01:20:13;101980.60;;;5.77;67.95
55277;BME280;41136;51.478;-2.610;2023-03-03T01:22:37;101984.06;;;5.28;70.09
55277;BME280;41136;51.478;-2.610;2023-03-03T01:25:02;101982.28;;;5.99;69.37
55277;BME280;41136;51.478;-2.610;2023-03-03T01:27:28;101981.69;;;6.48;68.45
55277;BME280;41136;51.478;-2.610;2023-03-03T01:29:53;101983.32;;;6.17;68.57
55277;BME280;41136;51.478;-2.610;2023-03-03T01:34:49;101988.45;;;5.92;65.91
55277;BME280;41136;51.478;-2.610;2023-03-03T01:37:14;101992.93;;;5.92;65.83
55277;BME280;41136;51.478;-2.610;2023-03-03T01:39:40;101994.33;;;5.61;66.67
55277;BME280;41136;51.478;-2.610;2023-03-03T01:42:05;101996.79;;;6.19;64.82
55277;BME280;41136;51.478;-2.610;2023-03-03T01:44:30;101996.74;;;6.52;65.23
55277;BME280;41136;51.478;-2.610;2023-03-03T01:47:02;101994.11;;;6.52;64.63
55277;BME280;41136;51.478;-2.610;2023-03-03T01:49:25;101992.59;;;6.67;65.06
55277;BME280;41136;51.478;-2.610;2023-03-03T01:51:50;101997.22;;;5.28;67.38
55277;BME280;41136;51.478;-2.610;2023-03-03T01:54:17;101990.22;;;5.88;67.45
55277;BME280;41136;51.478;-2.610;2023-03-03T01:56:38;101991.35;;;6.39;68.48
55277;BME280;41136;51.478;-2.610;2023-03-03T01:59:05;101989.49;;;6.35;67.12
55277;BME280;41136;51.478;-2.610;2023-03-03T02:01:30;101992.42;;;6.25;68.23
55277;BME280;41136;51.478;-2.610;2023-03-03T02:03:54;101988.72;;;5.91;68.18
55277;BME280;41136;51.478;-2.610;2023-03-03T02:06:23;101991.32;;;6.38;69.01
55277;BME280;41136;51.478;-2.610;2023-03-03T02:08:50;101992.44;;;5.34;69.55
55277;BME280;41136;51.478;-2.610;2023-03-03T02:11:11;101997.71;;;5.59;71.11
55277;BME280;41136;51.478;-2.610;2023-03-03T02:13:36;101994.80;;;5.60;70.91
55277;BME280;41136;51.478;-2.610;2023-03-03T02:16:01;101991.84;;;5.84;69.99
55277;BME280;41136;51.478;-2.610;2023-03-03T02:18:27;101992.30;;;6.24;69.25
55277;BME280;41136;51.478;-2.610;2023-03-03T02:20:56;101995.38;;;6.02;71.12
55277;BME280;41136;51.478;-2.610;2023-03-03T02:23:21;101997.29;;;5.70;72.70
55277;BME280;41136;51.478;-2.610;2023-03-03T02:25:48;101996.74;;;5.06;73.54
55277;BME280;41136;51.478;-2.610;2023-03-03T02:28:08;101997.29;;;5.04;75.68
55277;BME280;41136;51.478;-2.610;2023-03-03T02:30:37;101993.80;;;5.33;75.06
55277;BME280;41136;51.478;-2.610;2023-03-03T02:32:59;101996.63;;;5.26;74.59
55277;BME280;41136;51.478;-2.610;2023-03-03T02:35:28;101997.44;;;4.32;77.95
55277;BME280;41136;51.478;-2.610;2023-03-03T02:37:50;101993.82;;;4.73;77.89
55277;BME280;41136;51.478;-2.610;2023-03-03T02:40:18;101992.66;;;5.62;74.99
55277;BME280;41136;51.478;-2.610;2023-03-03T02:42:42;101994.20;;;5.22;75.45
55277;BME280;41136;51.478;-2.610;2023-03-03T02:45:07;101995.44;;;5.37;75.97
55277;BME280;41136;51.478;-2.610;2023-03-03T02:47:32;101999.48;;;5.44;75.11
55277;BME280;41136;51.478;-2.610;2023-03-03T02:49:58;101996.79;;;5.71;75.70
55277;BME280;41136;51.478;-2.610;2023-03-03T02:52:23;101994.64;;;5.06;77.24
55277;BME280;41136;51.478;-2.610;2023-03-03T02:54:48;101995.62;;;5.18;76.74
55277;BME280;41136;51.478;-2.610;2023-03-03T02:57:14;101999.15;;;5.21;78.27
55277;BME280;41136;51.478;-2.610;2023-03-03T02:59:39;101996.57;;;5.14;77.29
55277;BME280;41136;51.478;-2.610;2023-03-03T03:02:05;101994.97;;;5.32;77.64
55277;BME280;41136;51.478;-2.610;2023-03-03T03:04:30;101996.14;;;5.80;76.33
55277;BME280;41136;51.478;-2.610;2023-03-03T03:06:56;101995.53;;;6.44;75.18
55277;BME280;41136;51.478;-2.610;2023-03-03T03:09:23;101990.37;;;6.24;75.89
55277;BME280;41136;51.478;-2.610;2023-03-03T03:11:47;101989.75;;;5.51;76.16
55277;BME280;41136;51.478;-2.610;2023-03-03T03:14:14;101987.08;;;5.97;75.26
55277;BME280;41136;51.478;-2.610;2023-03-03T03:16:38;101986.38;;;5.18;79.34
55277;BME280;41136;51.478;-2.610;2023-03-03T03:19:04;101984.86;;;6.67;74.84
55277;BME280;41136;51.478;-2.610;2023-03-03T03:21:29;101984.93;;;5.82;77.39
55277;BME280;41136;51.478;-2.610;2023-03-03T03:23:55;101984.07;;;6.22;74.62
55277;BME280;41136;51.478;-2.610;2023-03-03T03:26:20;101984.59;;;6.06;75.54
55277;BME280;41136;51.478;-2.610;2023-03-03T03:28:46;101988.56;;;4.53;78.45
55277;BME280;41136;51.478;-2.610;2023-03-03T03:31:11;101988.27;;;5.41;78.10
55277;BME280;41136;51.478;-2.610;2023-03-03T03:33:36;101984.84;;;6.48;75.61
55277;BME280;41136;51.478;-2.610;2023-03-03T03:36:02;101985.49;;;6.24;75.18
55277;BME280;41136;51.478;-2.610;2023-03-03T03:38:27;101984.29;;;6.71;72.97
55277;BME280;41136;51.478;-2.610;2023-03-03T03:40:52;101982.11;;;6.09;72.91
55277;BME280;41136;51.478;-2.610;2023-03-03T03:43:17;101982.30;;;6.40;74.11
55277;BME280;41136;51.478;-2.610;2023-03-03T03:45:43;101980.99;;;5.67;75.81
55277;BME280;41136;51.478;-2.610;2023-03-03T03:48:08;101981.96;;;6.01;75.77
55277;BME280;41136;51.478;-2.610;2023-03-03T03:50:34;101984.26;;;6.03;76.32
55277;BME280;41136;51.478;-2.610;2023-03-03T03:52:59;101987.87;;;5.55;77.52
55277;BME280;41136;51.478;-2.610;2023-03-03T03:55:25;101986.16;;;5.53;76.22
55277;BME280;41136;51.478;-2.610;2023-03-03T03:57:50;101982.21;;;6.34;74.49
55277;BME280;41136;51.478;-2.610;2023-03-03T04:00:16;101982.83;;;6.24;73.33
55277;BME280;41136;51.478;-2.610;2023-03-03T04:02:41;101982.53;;;6.22;73.52
55277;BME280;41136;51.478;-2.610;2023-03-03T04:05:07;101986.11;;;5.89;72.90
55277;BME280;41136;51.478;-2.610;2023-03-03T04:07:32;101986.28;;;5.54;74.84
55277;BME280;41136;51.478;-2.610;2023-03-03T04:09:57;101983.94;;;5.73;76.20
55277;BME280;41136;51.478;-2.610;2023-03-03T04:12:23;101990.91;;;5.32;77.76
55277;BME280;41136;51.478;-2.610;2023-03-03T04:14:48;101988.76;;;5.10;77.07
55277;BME280;41136;51.478;-2.610;2023-03-03T04:17:16;101989.41;;;5.91;77.73
55277;BME280;41136;51.478;-2.610;2023-03-03T04:19:40;101986.60;;;6.22;75.28
55277;BME280;41136;51.478;-2.610;2023-03-03T04:22:05;101990.68;;;5.08;78.00
55277;BME280;41136;51.478;-2.610;2023-03-03T04:24:30;101986.87;;;5.74;77.35
55277;BME280;41136;51.478;-2.610;2023-03-03T04:26:56;101987.70;;;5.90;76.08
55277;BME280;41136;51.478;-2.610;2023-03-03T04:29:21;101985.61;;;6.52;74.70
55277;BME280;41136;51.478;-2.610;2023-03-03T04:31:47;101986.30;;;6.67;73.31
55277;BME280;41136;51.478;-2.610;2023-03-03T04:34:12;101982.89;;;7.21;71.57
55277;BME280;41136;51.478;-2.610;2023-03-03T04:36:38;101985.05;;;6.45;73.83
55277;BME280;41136;51.478;-2.610;2023-03-03T04:39:03;101987.51;;;6.36;73.63
55277;BME280;41136;51.478;-2.610;2023-03-03T04:41:29;101989.24;;;6.44;73.51
55277;BME280;41136;51.478;-2.610;2023-03-03T04:43:54;101986.88;;;7.20;73.30
55277;BME280;41136;51.478;-2.610;2023-03-03T04:46:20;101987.25;;;7.09;71.62
55277;BME280;41136;51.478;-2.610;2023-03-03T04:48:45;101987.65;;;7.21;71.14
55277;BME280;41136;51.478;-2.610;2023-03-03T04:51:11;101986.44;;;6.63;71.47
55277;BME280;41136;51.478;-2.610;2023-03-03T04:53:36;101992.46;;;5.89;74.77
55277;BME280;41136;51.478;-2.610;2023-03-03T04:56:02;101990.58;;;6.21;75.88
55277;BME280;41136;51.478;-2.610;2023-03-03T04:58:27;101988.05;;;6.58;75.02
55277;BME280;41136;51.478;-2.610;2023-03-03T05:00:54;101988.66;;;6.45;74.51
55277;BME280;41136;51.478;-2.610;2023-03-03T05:03:18;101986.93;;;6.56;73.97
55277;BME280;41136;51.478;-2.610;2023-03-03T05:05:44;101985.63;;;7.01;73.01
55277;BME280;41136;51.478;-2.610;2023-03-03T05:08:09;101983.78;;;6.74;71.77
55277;BME280;41136;51.478;-2.610;2023-03-03T05:10:34;101982.27;;;7.18;71.77
55277;BME280;41136;51.478;-2.610;2023-03-03T05:13:00;101983.02;;;7.27;70.64
55277;BME280;41136;51.478;-2.610;2023-03-03T05:15:25;101986.02;;;6.97;70.74
55277;BME280;41136;51.478;-2.610;2023-03-03T05:17:50;101984.40;;;6.67;70.04
55277;BME280;41136;51.478;-2.610;2023-03-03T05:20:16;101987.17;;;6.07;70.48
55277;BME280;41136;51.478;-2.610;2023-03-03T05:22:41;101988.17;;;6.83;70.00
55277;BME280;41136;51.478;-2.610;2023-03-03T05:25:07;101990.66;;;7.08;69.68
55277;BME280;41136;51.478;-2.610;2023-03-03T05:27:32;101989.71;;;6.64;69.37
55277;BME280;41136;51.478;-2.610;2023-03-03T05:29:58;101988.95;;;6.86;69.57
55277;BME280;41136;51.478;-2.610;2023-03-03T05:32:23;101994.90;;;6.70;70.91
55277;BME280;41136;51.478;-2.610;2023-03-03T05:34:48;101990.01;;;6.85;69.56
55277;BME280;41136;51.478;-2.610;2023-03-03T05:37:14;101992.74;;;6.79;69.43
55277;BME280;41136;51.478;-2.610;2023-03-03T05:39:40;101991.61;;;5.83;71.08
55277;BME280;41136;51.478;-2.610;2023-03-03T05:42:05;101992.57;;;5.59;74.03
55277;BME280;41136;51.478;-2.610;2023-03-03T05:44:30;101994.33;;;6.06;72.12
55277;BME280;41136;51.478;-2.610;2023-03-03T05:46:56;101990.32;;;6.09;72.62
55277;BME280;41136;51.478;-2.610;2023-03-03T05:49:21;101990.50;;;6.38;71.42
55277;BME280;41136;51.478;-2.610;2023-03-03T05:51:47;101990.96;;;5.37;72.33
55277;BME280;41136;51.478;-2.610;2023-03-03T05:54:12;101988.85;;;6.18;71.39
55277;BME280;41136;51.478;-2.610;2023-03-03T05:56:38;101990.43;;;5.87;70.10
55277;BME280;41136;51.478;-2.610;2023-03-03T05:59:03;101990.33;;;6.78;70.34
55277;BME280;41136;51.478;-2.610;2023-03-03T06:01:29;101990.16;;;6.05;70.84
55277;BME280;41136;51.478;-2.610;2023-03-03T06:03:54;101990.52;;;6.24;71.10
55277;BME280;41136;51.478;-2.610;2023-03-03T06:06:20;101985.35;;;6.55;71.06
55277;BME280;41136;51.478;-2.610;2023-03-03T06:08:45;101988.18;;;6.83;70.00
55277;BME280;41136;51.478;-2.610;2023-03-03T06:11:11;101988.21;;;6.58;70.76
55277;BME280;41136;51.478;-2.610;2023-03-03T06:13:36;101988.36;;;5.80;70.70
55277;BME280;41136;51.478;-2.610;2023-03-03T06:16:02;101990.44;;;5.61;72.66
55277;BME280;41136;51.478;-2.610;2023-03-03T06:18:27;101988.63;;;5.46;72.88
55277;BME280;41136;51.478;-2.610;2023-03-03T06:20:53;101993.53;;;5.66;72.88
55277;BME280;41136;51.478;-2.610;2023-03-03T06:23:18;101989.32;;;5.40;74.29
55277;BME280;41136;51.478;-2.610;2023-03-03T06:25:43;101994.37;;;4.53;75.13
55277;BME280;41136;51.478;-2.610;2023-03-03T06:28:09;101996.12;;;5.33;75.67
55277;BME280;41136;51.478;-2.610;2023-03-03T06:30:34;101998.23;;;4.27;76.80
55277;BME280;41136;51.478;-2.610;2023-03-03T06:33:00;101996.90;;;5.04;77.70
55277;BME280;41136;51.478;-2.610;2023-03-03T06:35:25;102001.60;;;5.34;76.41
55277;BME280;41136;51.478;-2.610;2023-03-03T06:37:51;102003.40;;;5.37;74.93
55277;BME280;41136;51.478;-2.610;2023-03-03T06:40:17;102012.20;;;5.79;73.06
55277;BME280;41136;51.478;-2.610;2023-03-03T06:42:42;102009.55;;;5.60;74.25
55277;BME280;41136;51.478;-2.610;2023-03-03T06:45:08;102013.93;;;5.58;73.87
55277;BME280;41136;51.478;-2.610;2023-03-03T06:47:32;102017.77;;;5.65;73.35
55277;BME280;41136;51.478;-2.610;2023-03-03T06:49:58;102017.28;;;5.74;72.87
55277;BME280;41136;51.478;-2.610;2023-03-03T06:52:25;102027.00;;;5.92;72.32
55277;BME280;41136;51.478;-2.610;2023-03-03T06:54:50;102030.48;;;5.74;72.48
55277;BME280;41136;51.478;-2.610;2023-03-03T06:57:19;102034.00;;;5.67;72.08
55277;BME280;41136;51.478;-2.610;2023-03-03T06:59:40;102033.73;;;5.80;72.53
55277;BME280;41136;51.478;-2.610;2023-03-03T07:02:12;102041.23;;;5.66;73.37
55277;BME280;41136;51.478;-2.610;2023-03-03T07:04:32;102040.46;;;5.99;73.15
55277;BME280;41136;51.478;-2.610;2023-03-03T07:06:57;102044.04;;;6.22;72.15
55277;BME280;41136;51.478;-2.610;2023-03-03T07:09:23;102047.11;;;6.01;72.97
55277;BME280;41136;51.478;-2.610;2023-03-03T07:11:47;102048.47;;;5.19;74.22
55277;BME280;41136;51.478;-2.610;2023-03-03T07:14:16;102049.24;;;5.30;75.53
55277;BME280;41136;51.478;-2.610;2023-03-03T07:16:38;102054.02;;;5.97;74.49
55277;BME280;41136;51.478;-2.610;2023-03-03T07:19:15;102050.50;;;5.83;73.58
55277;BME280;41136;51.478;-2.610;2023-03-03T07:21:33;102052.92;;;6.48;72.48
55277;BME280;41136;51.478;-2.610;2023-03-03T07:23:55;102057.63;;;6.35;72.02
55277;BME280;41136;51.478;-2.610;2023-03-03T07:26:24;102057.98;;;6.04;73.50
55277;BME280;41136;51.478;-2.610;2023-03-03T07:28:52;102064.38;;;6.39;72.22
55277;BME280;41136;51.478;-2.610;2023-03-03T07:31:16;102062.20;;;6.32;72.09
55277;BME280;41136;51.478;-2.610;2023-03-03T07:33:41;102062.79;;;5.64;73.50
55277;BME280;41136;51.478;-2.610;2023-03-03T07:36:02;102066.04;;;5.45;75.84
55277;BME280;41136;51.478;-2.610;2023-03-03T07:38:33;102066.39;;;6.18;73.45
55277;BME280;41136;51.478;-2.610;2023-03-03T07:40:54;102067.48;;;5.94;75.37
55277;BME280;41136;51.478;-2.610;2023-03-03T07:43:29;102064.79;;;5.72;74.54
55277;BME280;41136;51.478;-2.610;2023-03-03T07:45:43;102068.39;;;5.83;75.68
55277;BME280;41136;51.478;-2.610;2023-03-03T07:48:16;102070.97;;;6.21;73.44
55277;BME280;41136;51.478;-2.610;2023-03-03T07:50:34;102072.77;;;5.99;73.56
55277;BME280;41136;51.478;-2.610;2023-03-03T07:53:00;102079.32;;;5.56;74.57
55277;BME280;41136;51.478;-2.610;2023-03-03T07:55:30;102080.09;;;5.85;75.85
55277;BME280;41136;51.478;-2.610;2023-03-03T07:57:53;102076.15;;;6.35;73.94
55277;BME280;41136;51.478;-2.610;2023-03-03T08:02:43;102079.28;;;5.52;74.10
55277;BME280;41136;51.478;-2.610;2023-03-03T08:07:35;102083.68;;;5.24;76.63
55277;BME280;41136;51.478;-2.610;2023-03-03T08:09:59;102086.52;;;5.60;75.73
55277;BME280;41136;51.478;-2.610;2023-03-03T08:12:32;102082.34;;;5.72;75.44
55277;BME280;41136;51.478;-2.610;2023-03-03T08:14:51;102086.64;;;5.02;76.20
55277;BME280;41136;51.478;-2.610;2023-03-03T08:17:21;102091.19;;;5.74;76.35
55277;BME280;41136;51.478;-2.610;2023-03-03T08:19:40;102089.25;;;5.54;75.23
55277;BME280;41136;51.478;-2.610;2023-03-03T08:22:12;102089.38;;;5.54;75.41
55277;BME280;41136;51.478;-2.610;2023-03-03T08:24:30;102098.63;;;4.04;80.64
55277;BME280;41136;51.478;-2.610;2023-03-03T08:26:56;102099.23;;;4.05;82.39
55277;BME280;41136;51.478;-2.610;2023-03-03T08:29:21;102103.09;;;5.03;79.29
55277;BME280;41136;51.478;-2.610;2023-03-03T08:31:47;102105.04;;;5.89;77.32
55277;BME280;41136;51.478;-2.610;2023-03-03T08:34:12;102111.32;;;5.08;78.90
55277;BME280;41136;51.478;-2.610;2023-03-03T08:36:38;102109.95;;;5.92;76.94
55277;BME280;41136;51.478;-2.610;2023-03-03T08:39:08;102113.79;;;5.96;76.67
55277;BME280;41136;51.478;-2.610;2023-03-03T08:41:29;102116.09;;;6.33;75.30
55277;BME280;41136;51.478;-2.610;2023-03-03T08:43:54;102118.24;;;6.02;76.47
55277;BME280;41136;51.478;-2.610;2023-03-03T08:46:20;102120.29;;;5.70;75.81
55277;BME280;41136;51.478;-2.610;2023-03-03T08:48:51;102119.99;;;6.19;75.58
55277;BME280;41136;51.478;-2.610;2023-03-03T08:51:11;102121.56;;;6.70;74.79
55277;BME280;41136;51.478;-2.610;2023-03-03T08:53:36;102119.92;;;5.94;76.14
55277;BME280;41136;51.478;-2.610;2023-03-03T08:56:02;102119.96;;;5.83;76.20
55277;BME280;41136;51.478;-2.610;2023-03-03T08:58:27;102120.38;;;5.26;77.78
55277;BME280;41136;51.478;-2.610;2023-03-03T09:00:53;102120.00;;;5.84;76.73
55277;BME280;41136;51.478;-2.610;2023-03-03T09:03:18;102120.17;;;6.14;75.48
55277;BME280;41136;51.478;-2.610;2023-03-03T09:05:43;102118.51;;;6.11;75.23
55277;BME280;41136;51.478;-2.610;2023-03-03T09:08:09;102117.82;;;5.53;75.47
55277;BME280;41136;51.478;-2.610;2023-03-03T09:10:34;102117.06;;;6.10;74.83
55277;BME280;41136;51.478;-2.610;2023-03-03T09:13:03;102118.77;;;6.09;75.24
55277;BME280;41136;51.478;-2.610;2023-03-03T09:15:27;102121.88;;;5.79;73.84
55277;BME280;41136;51.478;-2.610;2023-03-03T09:17:51;102120.08;;;6.35;72.97
55277;BME280;41136;51.478;-2.610;2023-03-03T09:20:24;102123.32;;;5.74;74.30
55277;BME280;41136;51.478;-2.610;2023-03-03T09:22:44;102122.55;;;5.28;77.10
55277;BME280;41136;51.478;-2.610;2023-03-03T09:25:13;102124.43;;;5.33;78.75
55277;BME280;41136;51.478;-2.610;2023-03-03T09:27:34;102123.53;;;5.49;76.84
55277;BME280;41136;51.478;-2.610;2023-03-03T09:30:02;102121.69;;;5.50;75.85
55277;BME280;41136;51.478;-2.610;2023-03-03T09:32:32;102124.69;;;5.71;76.43
55277;BME280;41136;51.478;-2.610;2023-03-03T09:34:49;102127.07;;;5.81;73.79
55277;BME280;41136;51.478;-2.610;2023-03-03T09:37:20;102128.75;;;6.01;73.88
55277;BME280;41136;51.478;-2.610;2023-03-03T09:39:40;102127.24;;;6.12;73.39
55277;BME280;41136;51.478;-2.610;2023-03-03T09:44:44;102133.41;;;5.76;73.21
55277;BME280;41136;51.478;-2.610;2023-03-03T09:47:07;102135.13;;;6.15;72.10
55277;BME280;41136;51.478;-2.610;2023-03-03T09:49:27;102144.54;;;5.47;71.89
55277;BME280;41136;51.478;-2.610;2023-03-03T09:51:55;102144.44;;;5.29;73.47
55277;BME280;41136;51.478;-2.610;2023-03-03T09:54:21;102145.62;;;5.42;73.71
55277;BME280;41136;51.478;-2.610;2023-03-03T09:56:41;102151.67;;;5.29;74.11
55277;BME280;41136;51.478;-2.610;2023-03-03T09:59:15;102149.73;;;5.73;73.66
55277;BME280;41136;51.478;-2.610;2023-03-03T10:04:07;102151.33;;;6.14;71.12
55277;BME280;41136;51.478;-2.610;2023-03-03T10:06:25;102154.42;;;6.68;71.81
55277;BME280;41136;51.478;-2.610;2023-03-03T10:08:56;102157.66;;;5.77;71.81
55277;BME280;41136;51.478;-2.610;2023-03-03T10:11:17;102158.94;;;6.60;70.12
55277;BME280;41136;51.478;-2.610;2023-03-03T10:13:48;102157.31;;;6.23;69.94
55277;BME280;41136;51.478;-2.610;2023-03-03T10:16:16;102158.72;;;6.64;68.84
55277;BME280;41136;51.478;-2.610;2023-03-03T10:18:31;102158.02;;;7.08;67.66
55277;BME280;41136;51.478;-2.610;2023-03-03T10:21:01;102157.07;;;5.70;68.40
55277;BME280;41136;51.478;-2.610;2023-03-03T10:23:20;102160.62;;;6.36;70.32
55277;BME280;41136;51.478;-2.610;2023-03-03T10:25:52;102159.83;;;6.55;69.43
55277;BME280;41136;51.478;-2.610;2023-03-03T10:30:42;102166.87;;;6.29;69.58
55277;BME280;41136;51.478;-2.610;2023-03-03T10:33:02;102167.65;;;6.46;68.47
55277;BME280;41136;51.478;-2.610;2023-03-03T10:35:38;102169.97;;;6.00;68.89
55277;BME280;41136;51.478;-2.610;2023-03-03T10:38:01;102166.75;;;6.65;68.70
55277;BME280;41136;51.478;-2.610;2023-03-03T10:40:20;102166.11;;;6.65;67.35
55277;BME280;41136;51.478;-2.610;2023-03-03T10:42:54;102164.88;;;6.28;69.90
55277;BME280;41136;51.478;-2.610;2023-03-03T10:45:17;102168.59;;;6.53;67.67
55277;BME280;41136;51.478;-2.610;2023-03-03T10:47:45;102166.11;;;6.33;67.75
55277;BME280;41136;51.478;-2.610;2023-03-03T10:50:06;102169.37;;;6.65;67.78
55277;BME280;41136;51.478;-2.610;2023-03-03T10:52:31;102169.01;;;5.95;67.61
55277;BME280;41136;51.478;-2.610;2023-03-03T10:55:02;102170.97;;;6.00;68.61
55277;BME280;41136;51.478;-2.610;2023-03-03T10:57:19;102170.54;;;6.78;67.96
55277;BME280;41136;51.478;-2.610;2023-03-03T10:59:49;102170.35;;;6.26;67.80
55277;BME280;41136;51.478;-2.610;2023-03-03T11:02:13;102172.64;;;6.27;66.45
55277;BME280;41136;51.478;-2.610;2023-03-03T11:04:42;102169.01;;;6.61;67.18
55277;BME280;41136;51.478;-2.610;2023-03-03T11:07:02;102171.36;;;6.82;66.87
55277;BME280;41136;51.478;-2.610;2023-03-03T11:09:33;102171.03;;;7.02;66.71
55277;BME280;41136;51.478;-2.610;2023-03-03T11:11:50;102163.42;;;6.87;65.87
55277;BME280;41136;51.478;-2.610;2023-03-03T11:14:17;102168.63;;;7.70;65.82
55277;BME280;41136;51.478;-2.610;2023-03-03T11:16:48;102171.00;;;6.78;67.75
55277;BME280;41136;51.478;-2.610;2023-03-03T11:19:13;102170.58;;;7.72;65.72
55277;BME280;41136;51.478;-2.610;2023-03-03T11:21:33;102174.01;;;7.12;65.35
55277;BME280;41136;51.478;-2.610;2023-03-03T11:24:01;102175.45;;;7.47;65.40
55277;BME280;41136;51.478;-2.610;2023-03-03T11:26:29;102180.25;;;6.53;64.68
55277;BME280;41136;51.478;-2.610;2023-03-03T11:28:56;102180.21;;;7.07;65.90
55277;BME280;41136;51.478;-2.610;2023-03-03T11:31:17;102179.86;;;8.11;64.94
55277;BME280;41136;51.478;-2.610;2023-03-03T11:33:42;102182.43;;;8.00;62.81
55277;BME280;41136;51.478;-2.610;2023-03-03T11:36:10;102184.40;;;8.42;61.78
55277;BME280;41136;51.478;-2.610;2023-03-03T11:38:40;102189.31;;;8.69;60.66
55277;BME280;41136;51.478;-2.610;2023-03-03T11:40:54;102188.44;;;8.26;61.19
55277;BME280;41136;51.478;-2.610;2023-03-03T11:43:22;102188.72;;;8.06;61.27
55277;BME280;41136;51.478;-2.610;2023-03-03T11:45:46;102192.28;;;7.96;62.21
55277;BME280;41136;51.478;-2.610;2023-03-03T11:48:16;102190.15;;;8.04;62.01
55277;BME280;41136;51.478;-2.610;2023-03-03T11:50:39;102190.02;;;7.37;62.41
55277;BME280;41136;51.478;-2.610;2023-03-03T11:53:11;102186.64;;;7.55;62.27
55277;BME280;41136;51.478;-2.610;2023-03-03T11:55:30;102188.38;;;7.94;62.23
55277;BME280;41136;51.478;-2.610;2023-03-03T11:57:53;102179.15;;;8.22;62.40
55277;BME280;41136;51.478;-2.610;2023-03-03T12:00:22;102179.18;;;8.27;61.71
55277;BME280;41136;51.478;-2.610;2023-03-03T12:02:50;102174.49;;;7.81;61.35
55277;BME280;41136;51.478;-2.610;2023-03-03T12:05:10;102172.96;;;8.17;62.04
55277;BME280;41136;51.478;-2.610;2023-03-03T12:07:39;102172.05;;;8.65;60.41
55277;BME280;41136;51.478;-2.610;2023-03-03T12:10:10;102170.68;;;7.97;60.51
55277;BME280;41136;51.478;-2.610;2023-03-03T12:12:24;102172.07;;;7.90;61.31
55277;BME280;41136;51.478;-2.610;2023-03-03T12:14:58;102170.42;;;7.04;61.66
55277;BME280;41136;51.478;-2.610;2023-03-03T12:17:23;102170.73;;;7.64;62.77
55277;BME280;41136;51.478;-2.610;2023-03-03T12:19:47;102168.22;;;7.73;63.46
55277;BME280;41136;51.478;-2.610;2023-03-03T12:22:13;102167.76;;;7.15;66.12
55277;BME280;41136;51.478;-2.610;2023-03-03T12:24:40;102169.69;;;5.69;72.17
55277;BME280;41136;51.478;-2.610;2023-03-03T12:27:05;102173.09;;;4.88;79.47
55277;BME280;41136;51.478;-2.610;2023-03-03T12:29:26;102174.20;;;4.67;84.76
55277;BME280;41136;51.478;-2.610;2023-03-03T12:31:51;102171.48;;;6.47;81.70
55277;BME280;41136;51.478;-2.610;2023-03-03T12:34:16;102168.98;;;7.06;76.84
55277;BME280;41136;51.478;-2.610;2023-03-03T12:36:49;102167.52;;;5.81;79.16
55277;BME280;41136;51.478;-2.610;2023-03-03T12:39:10;102165.08;;;6.10;78.54
55277;BME280;41136;51.478;-2.610;2023-03-03T12:41:33;102161.94;;;5.95;77.47
55277;BME280;41136;51.478;-2.610;2023-03-03T12:43:58;102161.70;;;6.97;75.60
55277;BME280;41136;51.478;-2.610;2023-03-03T12:46:23;102162.56;;;6.84;72.26
55277;BME280;41136;51.478;-2.610;2023-03-03T12:48:45;102159.26;;;7.48;70.21
55277;BME280;41136;51.478;-2.610;2023-03-03T12:51:17;102159.88;;;7.54;71.03
55277;BME280;41136;51.478;-2.610;2023-03-03T12:53:47;102154.64;;;7.33;69.92
55277;BME280;41136;51.478;-2.610;2023-03-03T12:56:03;102154.07;;;7.22;70.88